createdAt,value
2022-12-23T00:01:05.850Z,66.23
2022-12-23T00:05:06.090Z,65.66
2022-12-23T00:09:06.255Z,65.93
2022-12-23T00:13:18.791Z,65.85
2022-12-23T00:17:22.922Z,66.96
2022-12-23T00:21:24.221Z,66.86
2022-12-23T00:25:40.366Z,66.93
2022-12-23T00:29:40.912Z,66.35
2022-12-23T00:33:46.232Z,66.25
2022-12-23T00:37:46.286Z,66.16
2022-12-23T00:41:59.745Z,65.61
2022-12-23T00:46:00.004Z,65.08
2022-12-23T00:50:02.948Z,65.32
2022-12-23T00:54:03.047Z,65.41
2022-12-23T00:58:03.062Z,65.65
2022-12-23T01:02:18.289Z,65.36
2022-12-23T01:06:21.554Z,66.77
2022-12-23T01:10:21.584Z,66.83
2022-12-23T01:14:22.821Z,66.34
2022-12-23T01:18:22.889Z,66.53
2022-12-23T01:22:25.649Z,66.40
2022-12-23T01:26:25.746Z,67.27
2022-12-23T01:30:26.028Z,67.24
2022-12-23T01:34:31.066Z,67.22
2022-12-23T01:38:38.153Z,67.04
2022-12-23T01:42:47.477Z,66.79
2022-12-23T01:46:47.695Z,66.33
2022-12-23T01:50:54.263Z,66.25
2022-12-23T01:54:58.928Z,66.42
2022-12-23T01:59:03.448Z,66.36
2022-12-23T02:03:16.053Z,64.82
2022-12-23T02:07:29.559Z,65.49
2022-12-23T02:11:54.576Z,65.29
2022-12-23T02:16:15.497Z,64.64
2022-12-23T02:20:48.769Z,65.65
2022-12-23T02:25:41.022Z,64.85
2022-12-23T02:30:39.668Z,63.92
2022-12-23T02:34:52.467Z,64.75
2022-12-23T02:39:05.291Z,64.30
2022-12-23T02:43:15.374Z,64.19
2022-12-23T02:47:27.211Z,64.17
2022-12-23T02:51:33.864Z,63.84
2022-12-23T02:55:42.232Z,63.62
2022-12-23T02:59:48.283Z,64.12
2022-12-23T03:03:53.755Z,63.75
2022-12-23T03:07:55.682Z,64.14
2022-12-23T03:12:07.746Z,64.13
2022-12-23T03:16:21.000Z,64.21
2022-12-23T03:20:33.585Z,63.81
2022-12-23T03:24:43.159Z,63.62
2022-12-23T03:28:52.015Z,63.73
2022-12-23T03:32:58.861Z,64.50
2022-12-23T03:37:08.748Z,64.39
2022-12-23T03:41:19.681Z,64.96
2022-12-23T03:45:38.536Z,64.67
2022-12-23T03:49:46.287Z,64.35
2022-12-23T03:53:56.371Z,64.33
2022-12-23T03:58:10.640Z,63.83
2022-12-23T04:02:17.713Z,64.47
2022-12-23T04:06:22.359Z,65.04
2022-12-23T04:10:26.315Z,65.67
2022-12-23T04:14:26.605Z,65.45
2022-12-23T04:18:26.656Z,65.52
2022-12-23T04:22:26.782Z,65.50
2022-12-23T04:26:29.458Z,64.83
2022-12-23T04:30:33.988Z,64.58
2022-12-23T04:34:34.993Z,64.46
2022-12-23T04:38:35.019Z,65.08
2022-12-23T04:42:38.342Z,65.51
2022-12-23T04:46:38.509Z,64.84
2022-12-23T04:50:38.975Z,65.43
2022-12-23T04:54:45.517Z,65.48
2022-12-23T04:58:48.861Z,65.05
2022-12-23T05:02:49.150Z,65.04
2022-12-23T05:06:49.456Z,64.56
2022-12-23T05:10:49.891Z,64.22
2022-12-23T05:14:52.657Z,63.50
2022-12-23T05:18:52.753Z,63.72
2022-12-23T05:22:53.061Z,65.17
2022-12-23T05:26:59.796Z,65.11
2022-12-23T05:31:06.349Z,64.90
2022-12-23T05:35:06.769Z,65.34
2022-12-23T05:39:07.295Z,65.08
2022-12-23T05:43:07.504Z,65.57
2022-12-23T05:47:10.152Z,65.81
2022-12-23T05:51:10.452Z,66.25
2022-12-23T05:55:12.429Z,66.27
2022-12-23T05:59:12.727Z,65.81
2022-12-23T06:03:15.724Z,66.54
2022-12-23T06:07:15.983Z,65.67
2022-12-23T06:11:16.130Z,65.35
2022-12-23T06:15:16.485Z,65.54
2022-12-23T06:19:19.285Z,66.24
2022-12-23T06:23:19.364Z,66.50
2022-12-23T06:27:20.028Z,65.99
2022-12-23T06:31:20.205Z,65.87
2022-12-23T06:35:22.976Z,66.08
2022-12-23T06:39:23.042Z,66.85
2022-12-23T06:43:23.354Z,67.42
2022-12-23T06:47:23.510Z,66.85
2022-12-23T06:51:26.330Z,68.02
2022-12-23T06:55:26.733Z,67.74
2022-12-23T06:59:27.068Z,66.51
2022-12-23T07:03:27.199Z,67.23
2022-12-23T07:07:32.287Z,66.81
2022-12-23T07:11:32.602Z,66.59
2022-12-23T07:15:32.893Z,66.32
2022-12-23T07:19:34.285Z,65.55
2022-12-23T07:23:37.101Z,65.54
2022-12-23T07:27:37.179Z,66.17
2022-12-23T07:31:40.918Z,65.03
2022-12-23T07:35:42.585Z,66.37
2022-12-23T07:39:45.658Z,66.05
2022-12-23T07:43:45.796Z,65.91
2022-12-23T07:47:46.232Z,66.04
2022-12-23T07:51:46.313Z,66.00
2022-12-23T07:55:54.610Z,65.55
2022-12-23T07:59:57.162Z,65.09
2022-12-23T08:03:57.434Z,65.00
2022-12-23T08:07:57.581Z,64.51
2022-12-23T08:12:00.685Z,64.99
2022-12-23T08:16:03.480Z,65.79
2022-12-23T08:20:03.978Z,65.22
2022-12-23T08:24:04.214Z,64.63
2022-12-23T08:28:07.377Z,65.12
2022-12-23T08:32:08.971Z,64.03
2022-12-23T08:36:16.220Z,64.97
2022-12-23T08:40:21.079Z,65.21
2022-12-23T08:44:27.128Z,65.22
2022-12-23T08:48:27.189Z,64.60
2022-12-23T08:52:27.332Z,63.91
2022-12-23T08:56:30.738Z,64.15
2022-12-23T09:00:33.530Z,64.37
2022-12-23T09:04:33.648Z,64.53
2022-12-23T09:08:33.653Z,64.00
2022-12-23T09:12:34.120Z,63.15
2022-12-23T09:16:36.787Z,62.76
2022-12-23T09:20:36.984Z,63.08
2022-12-23T09:24:38.212Z,62.58
2022-12-23T09:28:38.266Z,61.57
2022-12-23T09:32:41.117Z,60.94
2022-12-23T09:36:41.160Z,60.90
2022-12-23T09:40:45.717Z,60.53
2022-12-23T09:45:16.503Z,61.05
2022-12-23T09:49:20.987Z,59.96
2022-12-23T09:53:25.354Z,59.46
2022-12-23T09:57:36.648Z,59.43
2022-12-23T10:01:47.720Z,59.95
2022-12-23T10:06:05.218Z,59.48
2022-12-23T10:10:17.847Z,60.02
2022-12-23T10:14:23.427Z,59.27
2022-12-23T10:18:30.944Z,59.83
2022-12-23T10:22:43.508Z,60.18
2022-12-23T10:26:54.659Z,61.02
2022-12-23T10:31:30.966Z,60.62
2022-12-23T10:35:45.720Z,61.55
2022-12-23T10:40:06.553Z,61.14
2022-12-23T10:44:55.903Z,60.55
2022-12-23T10:49:06.467Z,60.68
2022-12-23T10:53:14.524Z,60.60
2022-12-23T10:57:20.608Z,60.00
2022-12-23T11:01:27.156Z,60.20
2022-12-23T11:05:32.255Z,60.25
2022-12-23T11:09:42.571Z,61.14
2022-12-23T11:13:48.359Z,61.51
2022-12-23T11:18:06.877Z,61.85
2022-12-23T11:22:06.858Z,61.97
2022-12-23T11:26:11.104Z,62.17
2022-12-23T11:30:22.182Z,62.44
2022-12-23T11:34:26.547Z,62.25
2022-12-23T11:38:26.729Z,62.01
2022-12-23T11:42:32.795Z,61.52
2022-12-23T11:46:37.562Z,62.24
2022-12-23T11:50:39.581Z,62.24
2022-12-23T11:54:40.715Z,62.22
2022-12-23T11:58:52.480Z,62.80
2022-12-23T12:02:59.493Z,63.09
2022-12-23T12:07:00.782Z,62.98
2022-12-23T12:11:09.002Z,63.45
2022-12-23T12:15:27.774Z,64.20
2022-12-23T12:19:38.990Z,64.15
2022-12-23T12:23:47.115Z,63.37
2022-12-23T12:27:55.247Z,63.42
2022-12-23T12:32:00.143Z,63.26
2022-12-23T12:36:16.542Z,62.55
2022-12-23T12:40:33.253Z,62.27
2022-12-23T12:44:45.614Z,62.31
2022-12-23T12:48:54.125Z,62.91
2022-12-23T12:53:05.074Z,63.09
2022-12-23T12:57:05.297Z,63.01
2022-12-23T13:01:30.403Z,62.62
2022-12-23T13:05:54.499Z,63.09
2022-12-23T13:10:06.517Z,62.81
2022-12-23T13:14:21.382Z,63.61
2022-12-23T13:18:41.504Z,64.22
2022-12-23T13:22:42.850Z,64.27
2022-12-23T13:27:02.074Z,64.43
2022-12-23T13:31:14.626Z,64.02
2022-12-23T13:35:35.116Z,64.48
2022-12-23T13:39:52.992Z,63.36
2022-12-23T13:44:05.343Z,63.67
2022-12-23T13:48:30.178Z,63.78
2022-12-23T13:52:52.962Z,63.78
2022-12-23T13:57:08.591Z,64.11
2022-12-23T14:01:37.499Z,63.70
2022-12-23T14:05:41.120Z,64.24
2022-12-23T14:09:42.129Z,64.13
2022-12-23T14:13:47.859Z,63.40
2022-12-23T14:18:10.977Z,64.78
2022-12-23T14:22:45.976Z,64.49
2022-12-23T14:27:33.724Z,66.94
2022-12-23T14:31:40.118Z,66.07
2022-12-23T14:36:15.779Z,66.35
2022-12-23T14:41:12.703Z,66.12
2022-12-23T14:45:44.142Z,67.51
2022-12-23T14:49:46.681Z,67.22
2022-12-23T14:54:19.775Z,67.35
2022-12-23T14:58:49.179Z,67.49
2022-12-23T15:02:49.498Z,67.46
2022-12-23T15:06:56.155Z,67.91
2022-12-23T15:11:00.278Z,68.34
2022-12-23T15:15:04.740Z,68.26
2022-12-23T15:19:19.969Z,67.68
2022-12-23T15:23:20.648Z,67.69
2022-12-23T15:27:27.682Z,67.47
2022-12-23T15:31:34.146Z,67.46
2022-12-23T15:35:38.410Z,68.08
2022-12-23T15:39:43.941Z,66.90
2022-12-23T15:43:47.725Z,67.53
2022-12-23T15:47:48.949Z,68.61
2022-12-23T15:52:15.232Z,68.05
2022-12-23T15:56:27.098Z,68.43
2022-12-23T16:00:41.439Z,68.83
2022-12-23T16:04:42.309Z,69.67
2022-12-23T16:08:42.501Z,70.05
2022-12-23T16:12:44.338Z,69.48
2022-12-23T16:16:47.304Z,69.04
2022-12-23T16:20:51.598Z,68.27
2022-12-23T16:25:01.904Z,67.83
2022-12-23T16:29:04.273Z,67.27
2022-12-23T16:33:09.991Z,67.42
2022-12-23T16:37:11.025Z,67.50
2022-12-23T16:41:11.103Z,67.29
2022-12-23T16:45:16.297Z,67.74
2022-12-23T16:49:25.510Z,67.97
2022-12-23T16:53:28.639Z,69.14
2022-12-23T16:57:28.676Z,68.24
2022-12-23T17:01:33.994Z,67.96
2022-12-23T17:05:36.788Z,67.74
2022-12-23T17:09:37.288Z,68.56
2022-12-23T17:13:37.447Z,69.48
2022-12-23T17:17:39.022Z,68.11
2022-12-23T17:21:44.726Z,67.45
2022-12-23T17:25:44.782Z,69.36
2022-12-23T17:29:45.159Z,67.93
2022-12-23T17:33:45.279Z,68.42
2022-12-23T17:37:48.832Z,68.10
2022-12-23T17:41:50.224Z,68.46
2022-12-23T17:45:51.886Z,68.53
2022-12-23T17:49:53.996Z,68.88
2022-12-23T17:53:59.389Z,69.29
2022-12-23T17:57:59.705Z,69.25
2022-12-23T18:01:59.785Z,70.10
2022-12-23T18:06:02.286Z,70.66
2022-12-23T18:10:05.261Z,68.67
2022-12-23T18:14:06.576Z,69.01
2022-12-23T18:18:22.008Z,68.35
2022-12-23T18:22:29.371Z,68.86
2022-12-23T18:26:32.156Z,68.40
2022-12-23T18:30:32.454Z,68.24
2022-12-23T18:34:32.736Z,67.87
2022-12-23T18:38:32.780Z,68.67
2022-12-23T18:42:35.484Z,68.22
2022-12-23T18:46:36.011Z,68.51
2022-12-23T18:50:39.181Z,69.41
2022-12-23T18:54:39.357Z,68.40
2022-12-23T18:58:42.162Z,67.70
2022-12-23T19:02:42.331Z,68.10
2022-12-23T19:06:43.665Z,67.12
2022-12-23T19:10:44.432Z,68.08
2022-12-23T19:14:47.968Z,67.70
2022-12-23T19:18:50.043Z,68.31
2022-12-23T19:22:51.397Z,67.62
2022-12-23T19:26:51.572Z,68.02
2022-12-23T19:30:54.525Z,67.88
2022-12-23T19:34:54.804Z,67.92
2022-12-23T19:38:55.182Z,67.12
2022-12-23T19:42:55.224Z,67.70
2022-12-23T19:46:57.946Z,67.76
2022-12-23T19:51:02.885Z,66.29
2022-12-23T19:55:03.061Z,67.25
2022-12-23T19:59:03.199Z,66.50
2022-12-23T20:03:06.092Z,66.59
2022-12-23T20:07:06.376Z,66.55
2022-12-23T20:11:12.995Z,66.22
2022-12-23T20:15:13.785Z,66.26
2022-12-23T20:19:16.925Z,67.09
2022-12-23T20:23:17.038Z,68.60
2022-12-23T20:27:20.106Z,67.60
2022-12-23T20:31:26.143Z,67.72
2022-12-23T20:35:29.535Z,67.41
2022-12-23T20:39:29.833Z,67.47
2022-12-23T20:43:30.275Z,66.92
2022-12-23T20:47:30.417Z,66.81
2022-12-23T20:51:33.228Z,65.46
2022-12-23T20:55:35.036Z,66.62
2022-12-23T20:59:35.711Z,66.43
2022-12-23T21:03:36.465Z,66.40
2022-12-23T21:07:40.023Z,65.94
2022-12-23T21:11:44.178Z,67.17
2022-12-23T21:15:44.374Z,66.78
2022-12-23T21:19:44.543Z,66.21
2022-12-23T21:23:48.146Z,66.58
2022-12-23T21:27:48.785Z,66.78
2022-12-23T21:31:49.091Z,66.62
2022-12-23T21:35:50.037Z,66.65
2022-12-23T21:39:52.684Z,66.66
2022-12-23T21:43:53.735Z,68.13
2022-12-23T21:47:53.939Z,68.86
2022-12-23T21:51:54.339Z,67.66
2022-12-23T21:55:57.050Z,67.23
2022-12-23T21:59:57.395Z,66.53
2022-12-23T22:04:00.343Z,66.56
2022-12-23T22:08:00.429Z,65.87
2022-12-23T22:12:05.193Z,65.48
2022-12-23T22:16:06.109Z,65.64
2022-12-23T22:20:06.956Z,65.07
2022-12-23T22:24:08.138Z,64.68
2022-12-23T22:28:11.239Z,63.80
2022-12-23T22:32:11.761Z,64.19
2022-12-23T22:36:14.395Z,64.08
2022-12-23T22:40:15.368Z,61.84
2022-12-23T22:44:18.287Z,62.39
2022-12-23T22:48:18.612Z,61.98
2022-12-23T22:52:18.689Z,61.92
2022-12-23T22:56:21.785Z,61.34
2022-12-23T23:00:24.835Z,61.61
2022-12-23T23:04:25.340Z,62.06
2022-12-23T23:08:25.413Z,62.63
2022-12-23T23:12:25.488Z,62.11
2022-12-23T23:16:28.711Z,62.10
2022-12-23T23:20:28.957Z,62.51
2022-12-23T23:24:31.365Z,62.20
2022-12-23T23:28:32.061Z,62.01
2022-12-23T23:32:35.040Z,62.10
2022-12-23T23:36:35.286Z,61.74
2022-12-23T23:40:35.721Z,61.82
2022-12-23T23:44:35.978Z,60.45
2022-12-23T23:48:38.738Z,59.82
2022-12-23T23:52:39.164Z,59.87
2022-12-23T23:56:39.755Z,59.38
